createdAt,value
2023-07-10T00:00:58.972Z,5.43
2023-07-10T00:03:25.741Z,5.07
2023-07-10T00:05:52.437Z,4.60
2023-07-10T00:08:19.275Z,4.93
2023-07-10T00:10:45.872Z,5.27
2023-07-10T00:13:13.500Z,4.80
2023-07-10T00:15:40.685Z,4.50
2023-07-10T00:18:15.650Z,5.10
2023-07-10T00:20:44.782Z,4.77
2023-07-10T00:23:11.372Z,4.90
2023-07-10T00:25:38.317Z,5.30
2023-07-10T00:28:25.382Z,4.47
2023-07-10T00:30:52.531Z,5.10
2023-07-10T00:33:21.052Z,4.87
2023-07-10T00:35:47.997Z,5.13
2023-07-10T00:38:18.781Z,4.80
2023-07-10T00:40:48.068Z,4.70
2023-07-10T00:43:27.083Z,4.17
2023-07-10T00:45:55.909Z,5.83
2023-07-10T00:48:35.133Z,4.70
2023-07-10T00:51:06.847Z,5.07
2023-07-10T00:53:37.436Z,5.30
2023-07-10T00:56:07.738Z,5.00
2023-07-10T00:58:40.245Z,5.30
2023-07-10T01:01:15.323Z,5.13
2023-07-10T01:03:44.026Z,4.60
2023-07-10T01:06:20.710Z,4.60
2023-07-10T01:08:56.912Z,4.20
2023-07-10T01:11:23.683Z,4.90
2023-07-10T01:13:52.117Z,5.30
2023-07-10T01:16:19.897Z,4.70
2023-07-10T01:18:48.432Z,4.50
2023-07-10T01:21:31.997Z,4.00
2023-07-10T01:24:02.141Z,4.40
2023-07-10T01:26:29.497Z,4.73
2023-07-10T01:28:58.518Z,4.77
2023-07-10T01:31:26.892Z,4.87
2023-07-10T01:33:57.985Z,4.27
2023-07-10T01:36:29.340Z,4.50
2023-07-10T01:39:00.476Z,4.40
2023-07-10T01:41:38.323Z,4.80
2023-07-10T01:44:32.382Z,5.90
2023-07-10T01:47:00.437Z,5.20
2023-07-10T01:49:36.705Z,4.70
2023-07-10T01:52:05.164Z,5.80
2023-07-10T01:54:32.387Z,5.53
2023-07-10T01:56:59.160Z,5.17
2023-07-10T01:59:26.059Z,5.10
2023-07-10T02:01:55.095Z,6.13
2023-07-10T02:04:21.900Z,5.23
2023-07-10T02:06:48.480Z,5.77
2023-07-10T02:09:15.494Z,5.17
2023-07-10T02:11:42.098Z,5.40
2023-07-10T02:14:09.541Z,4.33
2023-07-10T02:16:38.047Z,5.20
2023-07-10T02:19:06.186Z,5.00
2023-07-10T02:21:34.138Z,5.13
2023-07-10T02:24:01.030Z,5.10
2023-07-10T02:26:30.035Z,5.47
2023-07-10T02:28:58.496Z,5.50
2023-07-10T02:31:26.173Z,5.57
2023-07-10T02:33:55.866Z,5.27
2023-07-10T02:36:23.184Z,5.07
2023-07-10T02:38:53.239Z,4.80
2023-07-10T02:41:19.582Z,5.30
2023-07-10T02:43:47.539Z,4.97
2023-07-10T02:46:15.054Z,5.20
2023-07-10T02:48:41.761Z,5.27
2023-07-10T02:51:08.043Z,5.33
2023-07-10T02:53:35.290Z,4.90
2023-07-10T02:56:02.886Z,4.90
2023-07-10T02:58:30.156Z,5.10
2023-07-10T03:00:58.472Z,5.20
2023-07-10T03:03:25.979Z,5.10
2023-07-10T03:06:01.174Z,4.43
2023-07-10T03:08:29.513Z,4.83
2023-07-10T03:11:08.275Z,5.10
2023-07-10T03:13:35.967Z,5.10
2023-07-10T03:16:05.997Z,5.10
2023-07-10T03:18:37.357Z,5.37
2023-07-10T03:21:08.092Z,4.63
2023-07-10T03:23:35.695Z,5.40
2023-07-10T03:26:02.830Z,5.00
2023-07-10T03:28:31.735Z,5.40
2023-07-10T03:31:00.161Z,4.70
2023-07-10T03:33:26.819Z,5.67
2023-07-10T03:36:01.415Z,5.03
2023-07-10T03:38:28.713Z,4.63
2023-07-10T03:40:58.907Z,5.47
2023-07-10T03:43:26.954Z,5.30
2023-07-10T03:45:54.517Z,4.80
2023-07-10T03:48:21.330Z,5.60
2023-07-10T03:50:49.679Z,5.10
2023-07-10T03:53:16.323Z,4.90
2023-07-10T03:55:53.796Z,4.83
2023-07-10T03:58:25.576Z,5.40
2023-07-10T04:00:52.618Z,4.83
2023-07-10T04:03:22.857Z,5.10
2023-07-10T04:05:53.646Z,4.77
2023-07-10T04:08:28.826Z,5.17
2023-07-10T04:10:57.168Z,4.40
2023-07-10T04:13:25.021Z,4.70
2023-07-10T04:16:00.437Z,4.70
2023-07-10T04:18:28.947Z,4.53
2023-07-10T04:20:55.536Z,4.47
2023-07-10T04:23:22.219Z,4.63
2023-07-10T04:25:49.269Z,4.47
2023-07-10T04:28:15.852Z,4.93
2023-07-10T04:30:42.741Z,5.30
2023-07-10T04:33:22.280Z,4.80
2023-07-10T04:35:55.216Z,4.63
2023-07-10T04:38:27.218Z,4.17
2023-07-10T04:40:59.214Z,4.77
2023-07-10T04:43:28.096Z,4.03
2023-07-10T04:45:58.087Z,3.90
2023-07-10T04:48:26.224Z,4.43
2023-07-10T04:50:55.183Z,4.30
2023-07-10T04:53:22.631Z,3.70
2023-07-10T04:55:51.648Z,4.03
2023-07-10T04:58:18.701Z,4.30
2023-07-10T05:00:49.258Z,4.33
2023-07-10T05:03:18.173Z,3.57
2023-07-10T05:05:54.044Z,4.70
2023-07-10T05:08:23.632Z,5.07
2023-07-10T05:10:56.738Z,4.50
2023-07-10T05:13:28.239Z,4.03
2023-07-10T05:15:58.001Z,4.93
2023-07-10T05:18:27.271Z,4.73
2023-07-10T05:20:54.670Z,5.13
2023-07-10T05:23:21.558Z,6.20
2023-07-10T05:26:10.218Z,5.87
2023-07-10T05:28:37.242Z,6.30
2023-07-10T05:31:08.656Z,6.50
2023-07-10T05:34:00.380Z,6.40
2023-07-10T05:36:27.962Z,6.43
2023-07-10T05:38:57.422Z,7.80
2023-07-10T05:41:23.961Z,7.20
2023-07-10T05:43:51.146Z,7.37
2023-07-10T05:46:19.174Z,7.50
2023-07-10T05:48:45.518Z,10.03
2023-07-10T05:51:11.737Z,8.10
2023-07-10T05:53:38.341Z,8.07
2023-07-10T05:56:06.166Z,8.07
2023-07-10T05:58:35.523Z,9.57
2023-07-10T06:01:03.032Z,10.17
2023-07-10T06:03:34.030Z,10.20
2023-07-10T06:06:04.131Z,10.30
2023-07-10T06:08:32.199Z,10.15
2023-07-10T06:10:59.261Z,8.40
2023-07-10T06:13:29.670Z,8.73
2023-07-10T06:15:58.195Z,9.27
2023-07-10T06:18:25.308Z,9.03
2023-07-10T06:20:54.197Z,7.57
2023-07-10T06:23:21.900Z,8.70
2023-07-10T06:25:48.813Z,8.70
2023-07-10T06:28:16.195Z,8.57
2023-07-10T06:30:44.153Z,8.63
2023-07-10T06:33:13.015Z,8.77
2023-07-10T06:35:43.184Z,8.30
2023-07-10T06:38:10.030Z,9.13
2023-07-10T06:40:36.948Z,7.70
2023-07-10T06:43:03.622Z,7.93
2023-07-10T06:45:30.131Z,8.43
2023-07-10T06:47:56.981Z,8.47
2023-07-10T06:50:24.100Z,8.90
2023-07-10T06:52:50.867Z,8.27
2023-07-10T06:55:18.963Z,7.60
2023-07-10T06:57:46.033Z,9.03
2023-07-10T07:00:15.161Z,7.60
2023-07-10T07:02:41.758Z,7.27
2023-07-10T07:05:11.412Z,9.47
2023-07-10T07:07:39.968Z,7.40
2023-07-10T07:10:09.364Z,6.87
2023-07-10T07:12:35.991Z,7.77
2023-07-10T07:15:02.749Z,6.90
2023-07-10T07:17:29.383Z,7.10
2023-07-10T07:19:55.874Z,7.30
2023-07-10T07:22:22.716Z,7.20
2023-07-10T07:24:51.115Z,6.83
2023-07-10T07:27:17.989Z,7.13
2023-07-10T07:29:44.529Z,7.37
2023-07-10T07:32:12.291Z,7.50
2023-07-10T07:34:38.824Z,6.30
2023-07-10T07:37:06.580Z,6.80
2023-07-10T07:39:34.426Z,6.83
2023-07-10T07:42:03.058Z,7.10
2023-07-10T07:44:30.123Z,7.00
2023-07-10T07:46:58.540Z,6.40
2023-07-10T07:49:25.409Z,6.67
2023-07-10T07:51:53.279Z,5.80
2023-07-10T07:54:21.286Z,6.33
2023-07-10T07:56:51.875Z,5.80
2023-07-10T07:59:19.405Z,6.10
2023-07-10T08:01:47.105Z,8.63
2023-07-10T08:04:13.687Z,6.37
2023-07-10T08:06:42.229Z,6.90
2023-07-10T08:09:10.108Z,6.27
2023-07-10T08:11:36.700Z,6.00
2023-07-10T08:14:03.806Z,5.87
2023-07-10T08:16:30.415Z,6.33
2023-07-10T08:18:58.200Z,5.93
2023-07-10T08:21:25.025Z,7.00
2023-07-10T08:23:51.543Z,6.17
2023-07-10T08:26:18.180Z,5.60
2023-07-10T08:28:45.466Z,6.23
2023-07-10T08:31:12.121Z,6.00
2023-07-10T08:33:38.808Z,6.30
2023-07-10T08:36:07.641Z,5.63
2023-07-10T08:38:38.419Z,5.70
2023-07-10T08:41:18.039Z,6.30
2023-07-10T08:43:45.921Z,5.50
2023-07-10T08:46:24.870Z,6.10
2023-07-10T08:49:06.850Z,5.73
2023-07-10T08:52:12.592Z,5.33
2023-07-10T08:54:39.603Z,6.07
2023-07-10T08:57:29.533Z,5.97
2023-07-10T08:59:58.809Z,4.73
2023-07-10T09:02:49.205Z,4.70
2023-07-10T09:05:20.643Z,5.77
2023-07-10T09:07:47.857Z,5.40
2023-07-10T09:10:24.462Z,4.90
2023-07-10T09:12:53.325Z,5.77
2023-07-10T09:15:49.240Z,5.17
2023-07-10T09:18:23.532Z,5.70
2023-07-10T09:21:00.105Z,5.40
2023-07-10T09:23:30.045Z,5.40
2023-07-10T09:26:00.996Z,6.60
2023-07-10T09:28:27.970Z,5.13
2023-07-10T09:31:20.534Z,5.50
2023-07-10T09:34:00.482Z,5.83
2023-07-10T09:36:27.743Z,5.40
2023-07-10T09:38:55.123Z,5.50
2023-07-10T09:41:28.122Z,5.60
2023-07-10T09:43:59.621Z,5.70
2023-07-10T09:46:31.371Z,5.13
2023-07-10T09:49:00.863Z,5.40
2023-07-10T09:51:29.127Z,5.67
2023-07-10T09:54:08.070Z,5.50
2023-07-10T09:56:39.543Z,5.27
2023-07-10T09:59:33.507Z,4.80
2023-07-10T10:02:21.335Z,5.20
2023-07-10T10:04:55.464Z,5.27
2023-07-10T10:07:25.014Z,5.00
2023-07-10T10:10:26.220Z,4.33
2023-07-10T10:12:59.205Z,4.90
2023-07-10T10:15:43.471Z,5.27
2023-07-10T10:18:24.941Z,5.67
2023-07-10T10:20:52.616Z,5.40
2023-07-10T10:23:39.734Z,5.07
2023-07-10T10:26:27.346Z,5.10
2023-07-10T10:29:11.785Z,5.97
2023-07-10T10:31:43.011Z,4.93
2023-07-10T10:34:33.622Z,5.20
2023-07-10T10:37:22.575Z,5.33
2023-07-10T10:40:21.326Z,5.30
2023-07-10T10:42:52.123Z,5.23
2023-07-10T10:45:29.586Z,5.47
2023-07-10T10:48:16.487Z,6.23
2023-07-10T10:50:52.301Z,6.37
2023-07-10T10:53:42.076Z,5.13
2023-07-10T10:56:32.911Z,5.70
2023-07-10T10:59:15.011Z,5.17
2023-07-10T11:01:45.942Z,6.07
2023-07-10T11:04:21.669Z,5.80
2023-07-10T11:06:53.616Z,5.53
2023-07-10T11:09:24.382Z,5.70
2023-07-10T11:11:52.157Z,5.93
2023-07-10T11:14:18.904Z,5.90
2023-07-10T11:16:46.010Z,6.53
2023-07-10T11:19:18.319Z,7.00
2023-07-10T11:21:45.377Z,7.70
2023-07-10T11:24:35.044Z,7.37
2023-07-10T11:27:21.085Z,7.37
2023-07-10T11:30:14.701Z,6.77
2023-07-10T11:33:06.504Z,7.30
2023-07-10T11:35:33.717Z,6.23
2023-07-10T11:38:00.105Z,6.67
2023-07-10T11:40:29.903Z,6.13
2023-07-10T11:43:03.524Z,7.10
2023-07-10T11:45:36.551Z,6.30
2023-07-10T11:48:03.325Z,6.00
2023-07-10T11:50:31.111Z,5.90
2023-07-10T11:53:08.941Z,5.77
2023-07-10T11:56:03.078Z,6.00
2023-07-10T11:58:39.312Z,6.83
2023-07-10T12:01:18.712Z,7.27
2023-07-10T12:03:46.659Z,6.50
2023-07-10T12:06:22.386Z,7.47
2023-07-10T12:08:52.535Z,7.37
2023-07-10T12:11:32.737Z,7.20
2023-07-10T12:14:10.983Z,6.60
2023-07-10T12:17:22.077Z,7.00
2023-07-10T12:19:46.699Z,6.90
2023-07-10T12:22:19.892Z,6.70
2023-07-10T12:25:14.781Z,6.83
2023-07-10T12:30:22.191Z,6.80
2023-07-10T12:32:50.977Z,6.43
2023-07-10T12:35:38.382Z,6.10
2023-07-10T12:38:06.611Z,6.60
2023-07-10T12:40:33.494Z,6.50
2023-07-10T12:43:24.706Z,6.13
2023-07-10T12:46:03.550Z,6.37
2023-07-10T12:48:33.659Z,7.30
2023-07-10T12:51:02.811Z,6.43
2023-07-10T12:53:39.591Z,6.70
2023-07-10T12:56:25.272Z,6.10
2023-07-10T12:58:52.034Z,6.00
2023-07-10T13:01:22.447Z,5.93
2023-07-10T13:04:04.086Z,6.90
2023-07-10T13:06:32.988Z,5.93
2023-07-10T13:09:03.335Z,6.30
2023-07-10T13:11:42.236Z,6.33
2023-07-10T13:14:24.027Z,6.60
2023-07-10T13:16:52.645Z,7.37
2023-07-10T13:19:21.666Z,7.40
2023-07-10T13:21:48.765Z,6.90
2023-07-10T13:24:15.563Z,7.13
2023-07-10T13:26:46.463Z,7.27
2023-07-10T13:29:14.738Z,7.63
2023-07-10T13:31:41.852Z,7.20
2023-07-10T13:34:12.562Z,7.80
2023-07-10T13:36:40.942Z,6.83
2023-07-10T13:39:22.719Z,7.20
2023-07-10T13:41:50.521Z,8.27
2023-07-10T13:44:17.600Z,7.60
2023-07-10T13:46:44.181Z,8.00
2023-07-10T13:49:13.890Z,8.43
2023-07-10T13:51:40.520Z,7.93
2023-07-10T13:54:07.544Z,7.97
2023-07-10T13:56:40.995Z,7.77
2023-07-10T13:59:15.600Z,7.40
2023-07-10T14:01:44.387Z,8.00
2023-07-10T14:04:11.735Z,8.10
2023-07-10T14:06:42.014Z,7.20
2023-07-10T14:09:14.220Z,7.40
2023-07-10T14:11:42.676Z,5.90
2023-07-10T14:14:18.917Z,6.37
2023-07-10T14:16:46.732Z,5.73
2023-07-10T14:19:17.794Z,5.90
2023-07-10T14:21:45.654Z,5.47
2023-07-10T14:24:12.035Z,6.13
2023-07-10T14:26:39.381Z,5.77
2023-07-10T14:29:05.401Z,5.30
2023-07-10T14:31:32.049Z,5.47
2023-07-10T14:33:58.703Z,5.17
2023-07-10T14:36:36.125Z,5.47
2023-07-10T14:39:03.078Z,4.47
2023-07-10T14:41:30.306Z,5.07
2023-07-10T14:43:58.765Z,5.30
2023-07-10T14:46:31.494Z,4.33
2023-07-10T14:48:58.960Z,4.60
2023-07-10T14:51:26.621Z,4.40
2023-07-10T14:53:53.272Z,4.80
2023-07-10T14:56:20.026Z,4.50
2023-07-10T14:58:46.613Z,4.57
2023-07-10T15:01:18.034Z,4.40
2023-07-10T15:03:47.325Z,4.57
2023-07-10T15:06:27.137Z,4.13
2023-07-10T15:08:54.457Z,4.23
2023-07-10T15:11:22.827Z,4.17
2023-07-10T15:13:51.001Z,4.60
2023-07-10T15:16:20.404Z,3.80
2023-07-10T15:18:46.725Z,3.60
2023-07-10T15:21:18.111Z,4.30
2023-07-10T15:23:45.136Z,3.70
2023-07-10T15:26:13.047Z,3.57
2023-07-10T15:28:40.086Z,3.90
2023-07-10T15:31:09.747Z,4.10
2023-07-10T15:33:39.332Z,3.60
2023-07-10T15:36:06.292Z,3.40
2023-07-10T15:38:32.968Z,3.30
2023-07-10T15:41:03.931Z,2.80
2023-07-10T15:43:33.419Z,3.20
2023-07-10T15:46:01.666Z,3.67
2023-07-10T15:48:29.167Z,3.50
2023-07-10T15:50:56.604Z,3.20
2023-07-10T15:53:25.098Z,3.23
2023-07-10T15:55:52.142Z,3.50
2023-07-10T15:58:21.716Z,2.90
2023-07-10T16:00:50.670Z,3.60
2023-07-10T16:03:22.729Z,3.40
2023-07-10T16:05:51.548Z,3.30
2023-07-10T16:08:23.258Z,2.90
2023-07-10T16:10:55.352Z,3.20
2023-07-10T16:13:25.736Z,3.70
2023-07-10T16:15:53.314Z,3.23
2023-07-10T16:18:24.356Z,3.50
2023-07-10T16:20:50.935Z,2.60
2023-07-10T16:23:20.834Z,3.20
2023-07-10T16:25:49.807Z,3.27
2023-07-10T16:28:18.917Z,3.03
2023-07-10T16:30:45.977Z,2.80
2023-07-10T16:33:15.488Z,3.00
2023-07-10T16:35:42.025Z,3.27
2023-07-10T16:38:13.774Z,2.37
2023-07-10T16:40:41.532Z,2.80
2023-07-10T16:43:17.164Z,2.77
2023-07-10T16:45:53.384Z,3.13
2023-07-10T16:48:25.786Z,2.73
2023-07-10T16:50:54.397Z,3.00
2023-07-10T16:53:32.412Z,2.77
2023-07-10T16:56:01.402Z,3.00
2023-07-10T16:58:30.709Z,3.73
2023-07-10T17:00:57.921Z,3.03
2023-07-10T17:03:33.404Z,2.83
2023-07-10T17:06:00.990Z,2.70
2023-07-10T17:08:29.346Z,3.13
2023-07-10T17:10:58.300Z,3.30
2023-07-10T17:13:28.749Z,2.63
2023-07-10T17:15:57.969Z,3.30
2023-07-10T17:18:28.104Z,3.20
2023-07-10T17:20:56.308Z,3.00
2023-07-10T17:23:28.002Z,2.50
2023-07-10T17:25:55.327Z,2.53
2023-07-10T17:28:24.374Z,2.80
2023-07-10T17:30:55.540Z,2.60
2023-07-10T17:33:34.474Z,2.77
2023-07-10T17:36:01.652Z,3.47
2023-07-10T17:38:34.542Z,2.80
2023-07-10T17:41:02.284Z,2.67
2023-07-10T17:43:33.049Z,2.60
2023-07-10T17:46:01.242Z,2.40
2023-07-10T17:48:28.689Z,2.60
2023-07-10T17:50:56.821Z,3.53
2023-07-10T17:53:25.640Z,2.40
2023-07-10T17:55:55.134Z,3.40
2023-07-10T17:58:22.328Z,2.73
2023-07-10T18:00:53.324Z,1.90
2023-07-10T18:03:22.782Z,2.10
2023-07-10T18:05:50.390Z,1.73
2023-07-10T18:08:21.894Z,2.63
2023-07-10T18:10:50.269Z,2.20
2023-07-10T18:13:20.602Z,2.17
2023-07-10T18:15:47.681Z,2.67
2023-07-10T18:18:14.138Z,2.50
2023-07-10T18:20:40.912Z,2.17
2023-07-10T18:23:18.848Z,2.20
2023-07-10T18:25:46.822Z,2.40
2023-07-10T18:28:17.479Z,2.23
2023-07-10T18:30:46.707Z,2.53
2023-07-10T18:33:14.126Z,3.03
2023-07-10T18:35:42.264Z,2.10
2023-07-10T18:38:13.654Z,1.93
2023-07-10T18:40:40.515Z,2.30
2023-07-10T18:43:07.099Z,2.70
2023-07-10T18:45:33.852Z,2.43
2023-07-10T18:48:00.234Z,2.27
2023-07-10T18:50:26.672Z,2.40
2023-07-10T18:52:54.251Z,2.50
2023-07-10T18:55:22.014Z,2.10
2023-07-10T18:57:49.316Z,2.23
2023-07-10T19:00:20.619Z,2.17
2023-07-10T19:02:47.177Z,1.87
2023-07-10T19:05:13.872Z,2.03
2023-07-10T19:07:41.050Z,2.30
2023-07-10T19:10:19.767Z,2.03
2023-07-10T19:12:47.459Z,2.80
2023-07-10T19:15:13.805Z,2.20
2023-07-10T19:17:39.893Z,1.90
2023-07-10T19:20:07.814Z,2.47
2023-07-10T19:22:34.201Z,1.90
2023-07-10T19:25:04.675Z,2.07
2023-07-10T19:27:31.364Z,2.40
2023-07-10T19:29:58.446Z,2.47
2023-07-10T19:32:26.580Z,2.23
2023-07-10T19:34:53.432Z,2.47
2023-07-10T19:37:20.490Z,2.27
2023-07-10T19:39:47.075Z,2.33
2023-07-10T19:42:13.892Z,2.30
2023-07-10T19:44:47.171Z,2.47
2023-07-10T19:47:20.242Z,1.60
2023-07-10T19:49:49.309Z,2.47
2023-07-10T19:52:18.769Z,2.20
2023-07-10T19:54:45.336Z,2.13
2023-07-10T19:57:22.928Z,2.30
2023-07-10T19:59:49.278Z,2.77
2023-07-10T20:02:18.387Z,2.60
2023-07-10T20:04:44.900Z,2.60
2023-07-10T20:07:12.648Z,2.43
2023-07-10T20:09:39.005Z,2.30
2023-07-10T20:12:15.608Z,2.47
2023-07-10T20:14:41.985Z,2.53
2023-07-10T20:17:27.993Z,2.30
2023-07-10T20:19:54.774Z,2.37
2023-07-10T20:22:21.380Z,2.20
2023-07-10T20:24:48.186Z,2.70
2023-07-10T20:27:14.781Z,2.20
2023-07-10T20:29:41.261Z,2.70
2023-07-10T20:32:14.977Z,2.67
2023-07-10T20:34:49.666Z,2.43
2023-07-10T20:37:21.552Z,2.40
2023-07-10T20:39:49.618Z,2.40
2023-07-10T20:42:18.089Z,2.50
2023-07-10T20:44:47.742Z,2.70
2023-07-10T20:47:15.600Z,2.13
2023-07-10T20:49:44.053Z,2.63
2023-07-10T20:52:20.074Z,2.70
2023-07-10T20:54:48.195Z,2.70
2023-07-10T20:57:14.895Z,2.87
2023-07-10T20:59:42.508Z,2.60
2023-07-10T21:02:18.949Z,2.70
2023-07-10T21:04:46.290Z,3.00
2023-07-10T21:07:21.843Z,2.70
2023-07-10T21:09:56.793Z,2.50
2023-07-10T21:12:23.482Z,2.73
2023-07-10T21:14:50.561Z,2.83
2023-07-10T21:17:24.742Z,2.73
2023-07-10T21:19:51.867Z,2.50
2023-07-10T21:22:19.763Z,2.30
2023-07-10T21:24:49.032Z,2.80
2023-07-10T21:27:28.505Z,2.73
2023-07-10T21:30:01.299Z,2.60
2023-07-10T21:32:28.488Z,3.00
2023-07-10T21:34:55.830Z,3.10
2023-07-10T21:37:22.464Z,3.00
2023-07-10T21:39:48.770Z,3.87
2023-07-10T21:42:20.912Z,2.90
2023-07-10T21:44:47.544Z,3.50
2023-07-10T21:47:14.779Z,2.80
2023-07-10T21:49:41.340Z,2.63
2023-07-10T21:52:09.917Z,2.87
2023-07-10T21:54:37.749Z,2.53
2023-07-10T21:57:06.296Z,2.50
2023-07-10T21:59:36.297Z,2.47
2023-07-10T22:02:03.274Z,2.73
2023-07-10T22:04:29.787Z,2.80
2023-07-10T22:06:56.314Z,2.50
2023-07-10T22:09:22.867Z,2.23
2023-07-10T22:11:49.453Z,3.00
2023-07-10T22:14:17.939Z,3.00
2023-07-10T22:16:46.685Z,3.80
2023-07-10T22:19:15.257Z,2.43
2023-07-10T22:21:42.831Z,3.30
2023-07-10T22:24:19.565Z,2.63
2023-07-10T22:26:46.295Z,2.73
2023-07-10T22:29:12.805Z,3.07
2023-07-10T22:31:41.307Z,3.60
2023-07-10T22:34:09.283Z,2.63
2023-07-10T22:36:36.063Z,2.80
2023-07-10T22:39:02.685Z,2.60
2023-07-10T22:41:31.929Z,3.33
2023-07-10T22:44:11.591Z,3.40
2023-07-10T22:46:39.854Z,3.10
2023-07-10T22:49:08.740Z,3.13
2023-07-10T22:51:38.069Z,2.77
2023-07-10T22:54:05.392Z,3.00
2023-07-10T22:56:36.741Z,2.57
2023-07-10T22:59:04.334Z,3.30
2023-07-10T23:01:31.269Z,3.17
2023-07-10T23:03:59.012Z,3.10
2023-07-10T23:06:28.266Z,3.27
2023-07-10T23:08:55.545Z,3.30
2023-07-10T23:11:22.594Z,3.00
2023-07-10T23:13:51.486Z,3.87
2023-07-10T23:16:21.770Z,3.50
2023-07-10T23:18:59.071Z,3.80
2023-07-10T23:21:27.180Z,3.70
2023-07-10T23:23:54.348Z,3.20
2023-07-10T23:26:22.378Z,3.30
2023-07-10T23:28:49.166Z,3.50
2023-07-10T23:31:20.772Z,3.50
2023-07-10T23:33:49.992Z,3.30
2023-07-10T23:36:20.539Z,3.37
2023-07-10T23:38:47.246Z,3.57
2023-07-10T23:41:13.891Z,3.20
2023-07-10T23:43:40.616Z,3.60
2023-07-10T23:46:07.907Z,3.50
2023-07-10T23:48:34.738Z,3.50
2023-07-10T23:51:01.462Z,3.10
2023-07-10T23:53:28.074Z,3.30
2023-07-10T23:55:54.449Z,4.60
2023-07-10T23:58:20.703Z,3.90
